Shosei Maru — JJ4047 — position and weather

sailwx.info

Track history (hours):
 
Tides and Currents Weather Stations Pressure Air Temp Water Temp Dewpoint Dewpoint Depression Visibility Wind Speed Wind Dir Waves Ship Positions

Shosei Maru

Last reported at 2017-Dec-09 13:56 UTC. Time now 2017-Dec-12 22:00 UTC.
Position N 33°14' E 132°02'.

Length 105 m; draft 5.3 m.

Type: Tanker. MMSI: 431301658.

Date/timePositionNaut miles runAvg speedWind from/ knotsBaromVisibWave heightAir tempDewpointWater temp
2017-Dec-09 13:56N 33°14' E 132°02'612.8
2017-Dec-09 13:30N 33°19' E 131°58'713.2
2017-Dec-09 13:00N 33°25' E 131°54'713.7
2017-Dec-09 12:30N 33°31' E 131°50'713.7
2017-Dec-09 12:00N 33°37' E 131°46'713.6
2017-Dec-09 11:30N 33°41' E 131°40'713.6
2017-Dec-09 11:00N 33°44' E 131°32'714.0
2017-Dec-09 10:30N 33°47' E 131°25'714.0
2017-Dec-09 10:00N 33°49' E 131°17'714.1
2017-Dec-09 09:30N 33°53' E 131°09'713.1
2017-Dec-09 09:00N 33°56' E 131°03'1 1.5
2017-Dec-09 08:29N 33°57' E 131°02'0 0.0
2017-Dec-09 07:59N 33°57' E 131°02'0 0.0
2017-Dec-09 07:29N 33°57' E 131°02'0 0.0
2017-Dec-09 07:00N 33°57' E 131°02'4 7.5
2017-Dec-09 06:30N 33°58' E 130°58'4 8.9
2017-Dec-09 06:00N 33°54' E 130°54'4 8.8
2017-Dec-09 05:31N 33°58' E 130°52'0 0.2
2017-Dec-09 04:56N 33°58' E 130°52'0 0.0
2017-Dec-09 04:29N 33°58' E 130°52'0 0.0
2017-Dec-09 03:59N 33°58' E 130°52'0 0.0
2017-Dec-09 03:29N 33°58' E 130°52'0 0.0
2017-Dec-09 02:56N 33°58' E 130°52'0 0.0
2017-Dec-09 02:29N 33°58' E 130°52'0 0.0
2017-Dec-09 01:59N 33°58' E 130°52'0 0.0
2017-Dec-09 01:29N 33°58' E 130°52'0 0.0
2017-Dec-09 00:59N 33°58' E 130°52'0 0.0
2017-Dec-09 00:29N 33°58' E 130°52'0 0.0
2017-Dec-08 23:59N 33°58' E 130°52'0 0.2
2017-Dec-08 23:30N 33°58' E 130°52'3 5.8
2017-Dec-08 23:01N 34°01' E 130°51'5 9.8
2017-Dec-08 22:30N 34°03' E 130°46'510.9
2017-Dec-08 22:01N 34°04' E 130°39'611.1
2017-Dec-08 21:30N 33°60' E 130°35'612.4
2017-Dec-08 21:01N 33°58' E 130°28'611.8
2017-Dec-08 20:30N 33°54' E 130°22'611.8
2017-Dec-08 20:01N 33°49' E 130°19'612.0
2017-Dec-08 19:31N 33°44' E 130°16'510.4
2017-Dec-08 19:01N 33°39' E 130°19'2 2.9
2017-Dec-08 18:30N 33°38' E 130°20'0 0.0
2017-Dec-08 18:00N 33°38' E 130°20'0 0.0
2017-Dec-08 17:30N 33°38' E 130°20'0 0.1
2017-Dec-08 16:54N 33°38' E 130°20'0 0.1
2017-Dec-08 16:30N 33°38' E 130°20'0 0.0
2017-Dec-08 16:00N 33°38' E 130°20'0 0.0
2017-Dec-08 15:30N 33°38' E 130°20'0 0.0
2017-Dec-08 15:00N 33°38' E 130°20'0 0.0
2017-Dec-08 14:30N 33°38' E 130°20'0 0.0
2017-Dec-08 14:00N 33°38' E 130°20'0 0.1
2017-Dec-08 13:30N 33°38' E 130°20'0 0.0
2017-Dec-08 13:00N 33°38' E 130°20'0 0.1
2017-Dec-08 12:30N 33°38' E 130°20'0 0.0
2017-Dec-08 12:00N 33°38' E 130°20'0 0.0
2017-Dec-08 11:30N 33°38' E 130°20'0 0.0
2017-Dec-08 11:00N 33°38' E 130°20'0 0.0
2017-Dec-08 10:30N 33°38' E 130°20'0 0.0
2017-Dec-08 10:00N 33°38' E 130°20'0 0.0
2017-Dec-08 09:30N 33°38' E 130°20'0 0.0
2017-Dec-08 09:00N 33°38' E 130°20'0 0.0
2017-Dec-08 08:27N 33°38' E 130°20'0 0.0
2017-Dec-08 08:00N 33°38' E 130°20'0 0.1
2017-Dec-08 07:30N 33°38' E 130°20'1 2.6
2017-Dec-08 07:00N 33°39' E 130°21'0 0.1
2017-Dec-08 06:30N 33°39' E 130°21'0 0.1
2017-Dec-08 06:00N 33°39' E 130°21'0 0.1
2017-Dec-08 05:30N 33°39' E 130°21'0 0.1
2017-Dec-08 05:00N 33°39' E 130°21'0 0.1
2017-Dec-08 04:30N 33°39' E 130°21'0 0.0
2017-Dec-08 03:57N 33°39' E 130°21'0 0.0
2017-Dec-08 03:30N 33°39' E 130°21'1 1.1
2017-Dec-08 03:00N 33°38' E 130°21'1 1.6
2017-Dec-08 02:31N 33°38' E 130°20'3 5.8
2017-Dec-08 02:01N 33°39' E 130°17'1 1.8
2017-Dec-08 01:30N 33°39' E 130°15'0 0.0
2017-Dec-08 00:57N 33°39' E 130°15'0 0.0
2017-Dec-08 00:30N 33°39' E 130°15'0 0.0
2017-Dec-08 00:00N 33°39' E 130°15'0 0.0
2017-Dec-07 23:30N 33°39' E 130°15'0 0.0
2017-Dec-07 23:00N 33°39' E 130°15'0 0.0
2017-Dec-07 22:30N 33°39' E 130°15'0 0.0
2017-Dec-07 22:00N 33°39' E 130°15'0 0.0
2017-Dec-07 21:30N 33°39' E 130°15'0 0.0
2017-Dec-07 21:01N 33°39' E 130°15'0 0.0
2017-Dec-07 20:30N 33°39' E 130°15'0 0.0
2017-Dec-07 20:00N 33°39' E 130°15'0 0.0
2017-Dec-07 19:30N 33°39' E 130°15'0 0.0
2017-Dec-07 19:00N 33°39' E 130°15'1 2.9
2017-Dec-07 18:30N 33°40' E 130°15'713.2
2017-Dec-07 18:00N 33°46' E 130°18'713.7
2017-Dec-07 17:31N 33°52' E 130°22'612.1
2017-Dec-07 17:00N 33°57' E 130°27'613.0
2017-Dec-07 16:30N 33°59' E 130°34'713.5
2017-Dec-07 16:00N 34°02' E 130°42'713.1
2017-Dec-07 15:31N 34°03' E 130°49'611.1
2017-Dec-07 15:00N 33°58' E 130°53'4 7.6
2017-Dec-07 14:30N 33°55' E 130°56'611.0
2017-Dec-07 14:00N 33°58' E 131°01'713.8
2017-Dec-07 13:30N 33°54' E 131°08'714.2
2017-Dec-07 13:00N 33°52' E 131°16'714.3
2017-Dec-07 12:30N 33°50' E 131°24'714.3
2017-Dec-07 12:00N 33°49' E 131°33'714.5
2017-Dec-07 11:31N 33°47' E 131°41'714.3
2017-Dec-07 11:00N 33°46' E 131°50'814.0
2017-Dec-07 10:27N 33°45' E 131°59'813.7
2017-Dec-07 09:54N 33°48' E 132°08'813.2
2017-Dec-07 09:16N 33°50' E 132°17'513.9
2017-Dec-07 08:56N 33°51' E 132°23'714.5
2017-Dec-07 08:29N 33°55' E 132°29'612.7
2017-Dec-07 08:00N 34°01' E 132°30'712.9
2017-Dec-07 07:30N 34°05' E 132°24'713.8
2017-Dec-07 07:00N 34°11' E 132°20'612.4
2017-Dec-07 06:31N 34°16' E 132°23'611.6
2017-Dec-07 06:01N 34°17' E 132°30'510.7
2017-Dec-07 05:30N 34°12' E 132°29'0 0.3
2017-Dec-07 04:59N 34°12' E 132°29'0 0.0
2017-Dec-07 04:20N 34°12' E 132°29'0 0.0
2017-Dec-07 03:59N 34°12' E 132°29'0 0.0
2017-Dec-07 03:29N 34°12' E 132°29'0 0.0
2017-Dec-07 02:53N 34°12' E 132°29'0 0.0
2017-Dec-07 02:26N 34°12' E 132°29'0 0.0
2017-Dec-07 02:00N 34°12' E 132°29'0 0.0
2017-Dec-07 01:30N 34°12' E 132°29'0 0.2
2017-Dec-07 01:00N 34°12' E 132°29'4 8.2
2017-Dec-07 00:31N 34°16' E 132°30'5 9.2
2017-Dec-07 00:00N 34°17' E 132°25'611.9
2017-Dec-06 23:30N 34°12' E 132°21'714.8
2017-Dec-06 23:00N 34°05' E 132°25'815.0
2017-Dec-06 22:28N 33°59' E 132°32'714.9
2017-Dec-06 22:00N 33°54' E 132°27'814.3
2017-Dec-06 21:28N 33°50' E 132°19'714.6
2017-Dec-06 21:00N 33°49' E 132°11'  
2017-Dec-02 15:09N 34°27' E 130°54'214.4
2017-Dec-02 15:00N 34°26' E 130°52'713.9
2017-Dec-02 14:30N 34°19' E 130°49'714.5
2017-Dec-02 14:00N 34°12' E 130°50'714.3
2017-Dec-02 13:30N 34°05' E 130°51'713.1
2017-Dec-02 13:01N 33°59' E 130°53'1 1.6
2017-Dec-02 12:30N 33°58' E 130°52'0 0.0
2017-Dec-02 12:00N 33°58' E 130°52'0 0.0
2017-Dec-02 11:30N 33°58' E 130°52'0 0.0
2017-Dec-02 11:00N 33°58' E 130°52'0 0.0
2017-Dec-02 10:30N 33°58' E 130°52'0 0.0
2017-Dec-02 10:00N 33°58' E 130°52'0 0.0
2017-Dec-02 09:30N 33°58' E 130°52'0 0.0
2017-Dec-02 09:00N 33°58' E 130°52'0 0.0
2017-Dec-02 08:31N 33°58' E 130°52'0 0.0
2017-Dec-02 08:00N 33°58' E 130°52'0 0.0
2017-Dec-02 07:30N 33°58' E 130°52'0 0.0
2017-Dec-02 07:00N 33°58' E 130°52'0 0.0
2017-Dec-02 06:30N 33°58' E 130°52'0 0.2
2017-Dec-02 06:00N 33°58' E 130°52'3 5.0
2017-Dec-02 05:31N 34°01' E 130°54'0 0.8
2017-Dec-02 05:00N 34°00' E 130°53'4 7.9
2017-Dec-02 04:30N 33°56' E 130°53'3 6.1
2017-Dec-02 04:00N 33°56' E 130°56'510.0
2017-Dec-02 03:30N 33°58' E 131°02'612.8
2017-Dec-02 03:00N 33°54' E 131°08'2 3.2
2017-Dec-02 02:30N 33°52' E 131°08'0 0.0
2017-Dec-02 02:00N 33°52' E 131°08'0 0.0
2017-Dec-02 01:30N 33°52' E 131°08'0 0.0
2017-Dec-02 01:00N 33°52' E 131°08'0 0.0
2017-Dec-02 00:30N 33°52' E 131°08'0 0.1
2017-Dec-02 00:00N 33°52' E 131°08'0 0.1
2017-Dec-01 23:30N 33°52' E 131°08'0 0.1
2017-Dec-01 23:00N 33°52' E 131°08'0 0.0
2017-Dec-01 22:30N 33°52' E 131°08'0 0.1
2017-Dec-01 22:00N 33°52' E 131°08'0 0.0
2017-Dec-01 21:30N 33°52' E 131°08'0 0.0
2017-Dec-01 21:00N 33°52' E 131°08'0 0.0
2017-Dec-01 20:30N 33°52' E 131°08'0 0.0
2017-Dec-01 20:00N 33°52' E 131°08'0 0.0
2017-Dec-01 19:30N 33°52' E 131°08'0 0.0
2017-Dec-01 19:00N 33°52' E 131°08'0 0.0
2017-Dec-01 18:30N 33°52' E 131°08'0 0.1
2017-Dec-01 18:00N 33°52' E 131°08'0 0.0
2017-Dec-01 17:27N 33°52' E 131°08'0 0.0
2017-Dec-01 16:57N 33°52' E 131°08'0 0.1
2017-Dec-01 16:30N 33°52' E 131°08'0 0.0
2017-Dec-01 16:00N 33°52' E 131°08'0 0.0
2017-Dec-01 15:30N 33°52' E 131°08'0 0.0
2017-Dec-01 15:00N 33°52' E 131°08'0 0.0
2017-Dec-01 14:30N 33°52' E 131°08'0 0.0
2017-Dec-01 14:00N 33°52' E 131°08'0 0.0
2017-Dec-01 13:30N 33°52' E 131°08'0 0.0
2017-Dec-01 13:00N 33°52' E 131°08'0 0.0
2017-Dec-01 12:27N 33°52' E 131°08'0 0.0
2017-Dec-01 12:00N 33°52' E 131°08'0 0.0
2017-Dec-01 11:30N 33°52' E 131°08'0 0.0
2017-Dec-01 11:00N 33°52' E 131°08'0 0.0
2017-Dec-01 10:30N 33°52' E 131°08'3 5.5
2017-Dec-01 10:01N 33°52' E 131°11'714.8
2017-Dec-01 09:31N 33°50' E 131°20'815.0
2017-Dec-01 09:00N 33°46' E 131°28'815.1
2017-Dec-01 08:30N 33°43' E 131°36'815.1
2017-Dec-01 08:01N 33°41' E 131°45'714.2
2017-Dec-01 07:29N 33°36' E 131°51'715.3
2017-Dec-01 07:00N 33°29' E 131°55'815.4
2017-Dec-01 06:31N 33°22' E 131°58'915.1
2017-Dec-01 05:56N 33°14' E 132°03'25511.6
2017-Nov-30 08:02N 34°37' E 136°54'116.0
2017-Nov-30 07:58N 34°38' E 136°53'715.3
2017-Nov-30 07:31N 34°43' E 136°48'815.5
2017-Nov-30 07:01N 34°50' E 136°44'714.4
2017-Nov-30 06:30N 34°57' E 136°41'2 2.0
2017-Nov-30 05:29N 34°58' E 136°39'0 0.0
2017-Nov-30 04:53N 34°58' E 136°39'0 0.0
2017-Nov-30 04:30N 34°58' E 136°39'0 0.0
2017-Nov-30 04:00N 34°58' E 136°39'0 0.0
2017-Nov-30 03:31N 34°58' E 136°39'0 0.0
2017-Nov-30 03:01N 34°58' E 136°39'0 0.0
2017-Nov-30 02:30N 34°58' E 136°39'0 0.0
2017-Nov-30 02:01N 34°58' E 136°39'0 0.0
2017-Nov-30 01:30N 34°58' E 136°39'0 0.0
2017-Nov-30 01:00N 34°58' E 136°39'0 0.0
2017-Nov-30 00:30N 34°58' E 136°39'0 0.0
2017-Nov-30 00:00N 34°58' E 136°39'2 3.2
2017-Nov-29 23:30N 34°57' E 136°40'3 6.4
2017-Nov-29 23:00N 34°54' E 136°42'510.2
2017-Nov-29 22:31N 34°49' E 136°44'611.2
2017-Nov-29 22:00N 34°44' E 136°47'611.7
2017-Nov-29 21:30N 34°40' E 136°52'611.4
2017-Nov-29 21:00N 34°36' E 136°57'711.8
2017-Nov-29 20:26N 34°32' E 137°03'5713.1
2017-Nov-29 16:04N 33°46' E 136°22'  
Track history (hours):
 
Tides and Currents Weather Stations Pressure Air Temp Water Temp Dewpoint Dewpoint Depression Visibility Wind Speed Wind Dir Waves Ship Positions

Shosei Maru

Last reported at 2017-Dec-09 13:56 UTC. Time now 2017-Dec-12 22:00 UTC.
Position N 33°14' E 132°02'.

Length 105 m; draft 5.3 m.

Type: Tanker. MMSI: 431301658.

Date/timePositionNaut miles runAvg speedWind from/ knotsBaromVisibWave heightAir tempDewpointWater temp
2017-Dec-09 13:56N 33°14' E 132°02'612.8
2017-Dec-09 13:30N 33°19' E 131°58'713.2
2017-Dec-09 13:00N 33°25' E 131°54'713.7
2017-Dec-09 12:30N 33°31' E 131°50'713.7
2017-Dec-09 12:00N 33°37' E 131°46'713.6
2017-Dec-09 11:30N 33°41' E 131°40'713.6
2017-Dec-09 11:00N 33°44' E 131°32'714.0
2017-Dec-09 10:30N 33°47' E 131°25'714.0
2017-Dec-09 10:00N 33°49' E 131°17'714.1
2017-Dec-09 09:30N 33°53' E 131°09'713.1
2017-Dec-09 09:00N 33°56' E 131°03'1 1.5
2017-Dec-09 08:29N 33°57' E 131°02'0 0.0
2017-Dec-09 07:59N 33°57' E 131°02'0 0.0
2017-Dec-09 07:29N 33°57' E 131°02'0 0.0
2017-Dec-09 07:00N 33°57' E 131°02'4 7.5
2017-Dec-09 06:30N 33°58' E 130°58'4 8.9
2017-Dec-09 06:00N 33°54' E 130°54'4 8.8
2017-Dec-09 05:31N 33°58' E 130°52'0 0.2
2017-Dec-09 04:56N 33°58' E 130°52'0 0.0
2017-Dec-09 04:29N 33°58' E 130°52'0 0.0
2017-Dec-09 03:59N 33°58' E 130°52'0 0.0
2017-Dec-09 03:29N 33°58' E 130°52'0 0.0
2017-Dec-09 02:56N 33°58' E 130°52'0 0.0
2017-Dec-09 02:29N 33°58' E 130°52'0 0.0
2017-Dec-09 01:59N 33°58' E 130°52'0 0.0
2017-Dec-09 01:29N 33°58' E 130°52'0 0.0
2017-Dec-09 00:59N 33°58' E 130°52'0 0.0
2017-Dec-09 00:29N 33°58' E 130°52'0 0.0
2017-Dec-08 23:59N 33°58' E 130°52'0 0.2
2017-Dec-08 23:30N 33°58' E 130°52'3 5.8
2017-Dec-08 23:01N 34°01' E 130°51'5 9.8
2017-Dec-08 22:30N 34°03' E 130°46'510.9
2017-Dec-08 22:01N 34°04' E 130°39'611.1
2017-Dec-08 21:30N 33°60' E 130°35'612.4
2017-Dec-08 21:01N 33°58' E 130°28'611.8
2017-Dec-08 20:30N 33°54' E 130°22'611.8
2017-Dec-08 20:01N 33°49' E 130°19'612.0
2017-Dec-08 19:31N 33°44' E 130°16'510.4
2017-Dec-08 19:01N 33°39' E 130°19'2 2.9
2017-Dec-08 18:30N 33°38' E 130°20'0 0.0
2017-Dec-08 18:00N 33°38' E 130°20'0 0.0
2017-Dec-08 17:30N 33°38' E 130°20'0 0.1
2017-Dec-08 16:54N 33°38' E 130°20'0 0.1
2017-Dec-08 16:30N 33°38' E 130°20'0 0.0
2017-Dec-08 16:00N 33°38' E 130°20'0 0.0
2017-Dec-08 15:30N 33°38' E 130°20'0 0.0
2017-Dec-08 15:00N 33°38' E 130°20'0 0.0
2017-Dec-08 14:30N 33°38' E 130°20'0 0.0
2017-Dec-08 14:00N 33°38' E 130°20'0 0.1
2017-Dec-08 13:30N 33°38' E 130°20'0 0.0
2017-Dec-08 13:00N 33°38' E 130°20'0 0.1
2017-Dec-08 12:30N 33°38' E 130°20'0 0.0
2017-Dec-08 12:00N 33°38' E 130°20'0 0.0
2017-Dec-08 11:30N 33°38' E 130°20'0 0.0
2017-Dec-08 11:00N 33°38' E 130°20'0 0.0
2017-Dec-08 10:30N 33°38' E 130°20'0 0.0
2017-Dec-08 10:00N 33°38' E 130°20'0 0.0
2017-Dec-08 09:30N 33°38' E 130°20'0 0.0
2017-Dec-08 09:00N 33°38' E 130°20'0 0.0
2017-Dec-08 08:27N 33°38' E 130°20'0 0.0
2017-Dec-08 08:00N 33°38' E 130°20'0 0.1
2017-Dec-08 07:30N 33°38' E 130°20'1 2.6
2017-Dec-08 07:00N 33°39' E 130°21'0 0.1
2017-Dec-08 06:30N 33°39' E 130°21'0 0.1
2017-Dec-08 06:00N 33°39' E 130°21'0 0.1
2017-Dec-08 05:30N 33°39' E 130°21'0 0.1
2017-Dec-08 05:00N 33°39' E 130°21'0 0.1
2017-Dec-08 04:30N 33°39' E 130°21'0 0.0
2017-Dec-08 03:57N 33°39' E 130°21'0 0.0
2017-Dec-08 03:30N 33°39' E 130°21'1 1.1
2017-Dec-08 03:00N 33°38' E 130°21'1 1.6
2017-Dec-08 02:31N 33°38' E 130°20'3 5.8
2017-Dec-08 02:01N 33°39' E 130°17'1 1.8
2017-Dec-08 01:30N 33°39' E 130°15'0 0.0
2017-Dec-08 00:57N 33°39' E 130°15'0 0.0
2017-Dec-08 00:30N 33°39' E 130°15'0 0.0
2017-Dec-08 00:00N 33°39' E 130°15'0 0.0
2017-Dec-07 23:30N 33°39' E 130°15'0 0.0
2017-Dec-07 23:00N 33°39' E 130°15'0 0.0
2017-Dec-07 22:30N 33°39' E 130°15'0 0.0
2017-Dec-07 22:00N 33°39' E 130°15'0 0.0
2017-Dec-07 21:30N 33°39' E 130°15'0 0.0
2017-Dec-07 21:01N 33°39' E 130°15'0 0.0
2017-Dec-07 20:30N 33°39' E 130°15'0 0.0
2017-Dec-07 20:00N 33°39' E 130°15'0 0.0
2017-Dec-07 19:30N 33°39' E 130°15'0 0.0
2017-Dec-07 19:00N 33°39' E 130°15'1 2.9
2017-Dec-07 18:30N 33°40' E 130°15'713.2
2017-Dec-07 18:00N 33°46' E 130°18'713.7
2017-Dec-07 17:31N 33°52' E 130°22'612.1
2017-Dec-07 17:00N 33°57' E 130°27'613.0
2017-Dec-07 16:30N 33°59' E 130°34'713.5
2017-Dec-07 16:00N 34°02' E 130°42'713.1
2017-Dec-07 15:31N 34°03' E 130°49'611.1
2017-Dec-07 15:00N 33°58' E 130°53'4 7.6
2017-Dec-07 14:30N 33°55' E 130°56'611.0
2017-Dec-07 14:00N 33°58' E 131°01'713.8
2017-Dec-07 13:30N 33°54' E 131°08'714.2
2017-Dec-07 13:00N 33°52' E 131°16'714.3
2017-Dec-07 12:30N 33°50' E 131°24'714.3
2017-Dec-07 12:00N 33°49' E 131°33'714.5
2017-Dec-07 11:31N 33°47' E 131°41'714.3
2017-Dec-07 11:00N 33°46' E 131°50'814.0
2017-Dec-07 10:27N 33°45' E 131°59'813.7
2017-Dec-07 09:54N 33°48' E 132°08'813.2
2017-Dec-07 09:16N 33°50' E 132°17'513.9
2017-Dec-07 08:56N 33°51' E 132°23'714.5
2017-Dec-07 08:29N 33°55' E 132°29'612.7
2017-Dec-07 08:00N 34°01' E 132°30'712.9
2017-Dec-07 07:30N 34°05' E 132°24'713.8
2017-Dec-07 07:00N 34°11' E 132°20'612.4
2017-Dec-07 06:31N 34°16' E 132°23'611.6
2017-Dec-07 06:01N 34°17' E 132°30'510.7
2017-Dec-07 05:30N 34°12' E 132°29'0 0.3
2017-Dec-07 04:59N 34°12' E 132°29'0 0.0
2017-Dec-07 04:20N 34°12' E 132°29'0 0.0
2017-Dec-07 03:59N 34°12' E 132°29'0 0.0
2017-Dec-07 03:29N 34°12' E 132°29'0 0.0
2017-Dec-07 02:53N 34°12' E 132°29'0 0.0
2017-Dec-07 02:26N 34°12' E 132°29'0 0.0
2017-Dec-07 02:00N 34°12' E 132°29'0 0.0
2017-Dec-07 01:30N 34°12' E 132°29'0 0.2
2017-Dec-07 01:00N 34°12' E 132°29'4 8.2
2017-Dec-07 00:31N 34°16' E 132°30'5 9.2
2017-Dec-07 00:00N 34°17' E 132°25'611.9
2017-Dec-06 23:30N 34°12' E 132°21'714.8
2017-Dec-06 23:00N 34°05' E 132°25'815.0
2017-Dec-06 22:28N 33°59' E 132°32'714.9
2017-Dec-06 22:00N 33°54' E 132°27'814.3
2017-Dec-06 21:28N 33°50' E 132°19'714.6
2017-Dec-06 21:00N 33°49' E 132°11'  
2017-Dec-02 15:09N 34°27' E 130°54'214.4
2017-Dec-02 15:00N 34°26' E 130°52'713.9
2017-Dec-02 14:30N 34°19' E 130°49'714.5
2017-Dec-02 14:00N 34°12' E 130°50'714.3
2017-Dec-02 13:30N 34°05' E 130°51'713.1
2017-Dec-02 13:01N 33°59' E 130°53'1 1.6
2017-Dec-02 12:30N 33°58' E 130°52'0 0.0
2017-Dec-02 12:00N 33°58' E 130°52'0 0.0
2017-Dec-02 11:30N 33°58' E 130°52'0 0.0
2017-Dec-02 11:00N 33°58' E 130°52'0 0.0
2017-Dec-02 10:30N 33°58' E 130°52'0 0.0
2017-Dec-02 10:00N 33°58' E 130°52'0 0.0
2017-Dec-02 09:30N 33°58' E 130°52'0 0.0
2017-Dec-02 09:00N 33°58' E 130°52'0 0.0
2017-Dec-02 08:31N 33°58' E 130°52'0 0.0
2017-Dec-02 08:00N 33°58' E 130°52'0 0.0
2017-Dec-02 07:30N 33°58' E 130°52'0 0.0
2017-Dec-02 07:00N 33°58' E 130°52'0 0.0
2017-Dec-02 06:30N 33°58' E 130°52'0 0.2
2017-Dec-02 06:00N 33°58' E 130°52'3 5.0
2017-Dec-02 05:31N 34°01' E 130°54'0 0.8
2017-Dec-02 05:00N 34°00' E 130°53'4 7.9
2017-Dec-02 04:30N 33°56' E 130°53'3 6.1
2017-Dec-02 04:00N 33°56' E 130°56'510.0
2017-Dec-02 03:30N 33°58' E 131°02'612.8
2017-Dec-02 03:00N 33°54' E 131°08'2 3.2
2017-Dec-02 02:30N 33°52' E 131°08'0 0.0
2017-Dec-02 02:00N 33°52' E 131°08'0 0.0
2017-Dec-02 01:30N 33°52' E 131°08'0 0.0
2017-Dec-02 01:00N 33°52' E 131°08'0 0.0
2017-Dec-02 00:30N 33°52' E 131°08'0 0.1
2017-Dec-02 00:00N 33°52' E 131°08'0 0.1
2017-Dec-01 23:30N 33°52' E 131°08'0 0.1
2017-Dec-01 23:00N 33°52' E 131°08'0 0.0
2017-Dec-01 22:30N 33°52' E 131°08'0 0.1
2017-Dec-01 22:00N 33°52' E 131°08'0 0.0
2017-Dec-01 21:30N 33°52' E 131°08'0 0.0
2017-Dec-01 21:00N 33°52' E 131°08'0 0.0
2017-Dec-01 20:30N 33°52' E 131°08'0 0.0
2017-Dec-01 20:00N 33°52' E 131°08'0 0.0
2017-Dec-01 19:30N 33°52' E 131°08'0 0.0
2017-Dec-01 19:00N 33°52' E 131°08'0 0.0
2017-Dec-01 18:30N 33°52' E 131°08'0 0.1
2017-Dec-01 18:00N 33°52' E 131°08'0 0.0
2017-Dec-01 17:27N 33°52' E 131°08'0 0.0
2017-Dec-01 16:57N 33°52' E 131°08'0 0.1
2017-Dec-01 16:30N 33°52' E 131°08'0 0.0
2017-Dec-01 16:00N 33°52' E 131°08'0 0.0
2017-Dec-01 15:30N 33°52' E 131°08'0 0.0
2017-Dec-01 15:00N 33°52' E 131°08'0 0.0
2017-Dec-01 14:30N 33°52' E 131°08'0 0.0
2017-Dec-01 14:00N 33°52' E 131°08'0 0.0
2017-Dec-01 13:30N 33°52' E 131°08'0 0.0
2017-Dec-01 13:00N 33°52' E 131°08'0 0.0
2017-Dec-01 12:27N 33°52' E 131°08'0 0.0
2017-Dec-01 12:00N 33°52' E 131°08'0 0.0
2017-Dec-01 11:30N 33°52' E 131°08'0 0.0
2017-Dec-01 11:00N 33°52' E 131°08'0 0.0
2017-Dec-01 10:30N 33°52' E 131°08'3 5.5
2017-Dec-01 10:01N 33°52' E 131°11'714.8
2017-Dec-01 09:31N 33°50' E 131°20'815.0
2017-Dec-01 09:00N 33°46' E 131°28'815.1
2017-Dec-01 08:30N 33°43' E 131°36'815.1
2017-Dec-01 08:01N 33°41' E 131°45'714.2
2017-Dec-01 07:29N 33°36' E 131°51'715.3
2017-Dec-01 07:00N 33°29' E 131°55'815.4
2017-Dec-01 06:31N 33°22' E 131°58'915.1
2017-Dec-01 05:56N 33°14' E 132°03'25511.6
2017-Nov-30 08:02N 34°37' E 136°54'116.0
2017-Nov-30 07:58N 34°38' E 136°53'715.3
2017-Nov-30 07:31N 34°43' E 136°48'815.5
2017-Nov-30 07:01N 34°50' E 136°44'714.4
2017-Nov-30 06:30N 34°57' E 136°41'2 2.0
2017-Nov-30 05:29N 34°58' E 136°39'0 0.0
2017-Nov-30 04:53N 34°58' E 136°39'0 0.0
2017-Nov-30 04:30N 34°58' E 136°39'0 0.0
2017-Nov-30 04:00N 34°58' E 136°39'0 0.0
2017-Nov-30 03:31N 34°58' E 136°39'0 0.0
2017-Nov-30 03:01N 34°58' E 136°39'0 0.0
2017-Nov-30 02:30N 34°58' E 136°39'0 0.0
2017-Nov-30 02:01N 34°58' E 136°39'0 0.0
2017-Nov-30 01:30N 34°58' E 136°39'0 0.0
2017-Nov-30 01:00N 34°58' E 136°39'0 0.0
2017-Nov-30 00:30N 34°58' E 136°39'0 0.0
2017-Nov-30 00:00N 34°58' E 136°39'2 3.2
2017-Nov-29 23:30N 34°57' E 136°40'3 6.4
2017-Nov-29 23:00N 34°54' E 136°42'510.2
2017-Nov-29 22:31N 34°49' E 136°44'611.2
2017-Nov-29 22:00N 34°44' E 136°47'611.7
2017-Nov-29 21:30N 34°40' E 136°52'611.4
2017-Nov-29 21:00N 34°36' E 136°57'711.8
2017-Nov-29 20:26N 34°32' E 137°03'5713.1
2017-Nov-29 16:04N 33°46' E 136°22'  

Dump ship's entire track history